sensor_id;sensor_type;location;lat;lon;timestamp;pressure;altitude;pressure_sealevel;temperature;humidity
29385;BME280;16367;48.736;9.218;2023-04-23T00:00:08;-23591.34;;;13.40;87.46
29385;BME280;16367;48.736;9.218;2023-04-23T00:02:15;-23590.53;;;13.37;87.62
29385;BME280;16367;48.736;9.218;2023-04-23T00:04:19;-23589.13;;;13.33;88.19
29385;BME280;16367;48.736;9.218;2023-04-23T00:06:24;-23588.63;;;13.31;88.42
29385;BME280;16367;48.736;9.218;2023-04-23T00:08:28;-23588.63;;;13.31;88.34
29385;BME280;16367;48.736;9.218;2023-04-23T00:10:33;-23588.63;;;13.31;88.77
29385;BME280;16367;48.736;9.218;2023-04-23T00:12:36;-23586.59;;;13.25;89.08
29385;BME280;16367;48.736;9.218;2023-04-23T00:14:39;-23589.13;;;13.33;89.33
29385;BME280;16367;48.736;9.218;2023-04-23T00:16:43;-23589.13;;;13.33;89.51
29385;BME280;16367;48.736;9.218;2023-04-23T00:18:46;-23587.53;;;13.28;89.96
29385;BME280;16367;48.736;9.218;2023-04-23T00:20:49;-23588.50;;;13.31;90.20
29385;BME280;16367;48.736;9.218;2023-04-23T00:22:52;-23589.75;;;13.35;90.50
29385;BME280;16367;48.736;9.218;2023-04-23T00:24:54;-23587.53;;;13.28;90.77
29385;BME280;16367;48.736;9.218;2023-04-23T00:26:58;-23585.31;;;13.21;92.16
29385;BME280;16367;48.736;9.218;2023-04-23T00:29:01;-23584.38;;;13.18;92.30
29385;BME280;16367;48.736;9.218;2023-04-23T00:31:04;-23582.16;;;13.11;92.77
29385;BME280;16367;48.736;9.218;2023-04-23T00:33:07;-23585.31;;;13.21;93.35
29385;BME280;16367;48.736;9.218;2023-04-23T00:35:10;-23586.28;;;13.24;93.04
29385;BME280;16367;48.736;9.218;2023-04-23T00:37:14;-23582.47;;;13.12;93.65
29385;BME280;16367;48.736;9.218;2023-04-23T00:39:17;-23582.97;;;13.13;92.80
29385;BME280;16367;48.736;9.218;2023-04-23T00:41:20;-23580.91;;;13.07;93.60
29385;BME280;16367;48.736;9.218;2023-04-23T00:43:25;-23581.84;;;13.10;94.55
29385;BME280;16367;48.736;9.218;2023-04-23T00:45:27;-23584.38;;;13.18;94.10
29385;BME280;16367;48.736;9.218;2023-04-23T00:47:31;-23587.53;;;13.28;94.21
29385;BME280;16367;48.736;9.218;2023-04-23T00:49:34;-23582.97;;;13.13;95.94
29385;BME280;16367;48.736;9.218;2023-04-23T00:51:37;-23579.78;;;13.03;98.91
29385;BME280;16367;48.736;9.218;2023-04-23T00:53:40;-23577.91;;;12.97;99.67
29385;BME280;16367;48.736;9.218;2023-04-23T00:55:42;-23573.47;;;12.83;100.00
29385;BME280;16367;48.736;9.218;2023-04-23T00:57:45;-23572.19;;;12.79;100.00
29385;BME280;16367;48.736;9.218;2023-04-23T00:59:50;-23568.41;;;12.67;100.00
29385;BME280;16367;48.736;9.218;2023-04-23T01:01:55;-23568.56;;;12.67;100.00
29385;BME280;16367;48.736;9.218;2023-04-23T01:03:58;-23565.41;;;12.57;100.00
29385;BME280;16367;48.736;9.218;2023-04-23T01:06:02;-23563.03;;;12.50;100.00
29385;BME280;16367;48.736;9.218;2023-04-23T01:08:05;-23561.59;;;12.45;100.00
29385;BME280;16367;48.736;9.218;2023-04-23T01:10:08;-23560.19;;;12.41;100.00
29385;BME280;16367;48.736;9.218;2023-04-23T01:12:12;-23558.44;;;12.35;100.00
29385;BME280;16367;48.736;9.218;2023-04-23T01:14:16;-23557.50;;;12.32;100.00
29385;BME280;16367;48.736;9.218;2023-04-23T01:16:20;-23557.50;;;12.32;100.00
29385;BME280;16367;48.736;9.218;2023-04-23T01:18:23;-23557.81;;;12.33;100.00
29385;BME280;16367;48.736;9.218;2023-04-23T01:20:27;-23555.91;;;12.27;100.00
29385;BME280;16367;48.736;9.218;2023-04-23T01:22:31;-23554.81;;;12.24;100.00
29385;BME280;16367;48.736;9.218;2023-04-23T01:24:34;-23558.44;;;12.35;100.00
29385;BME280;16367;48.736;9.218;2023-04-23T01:26:37;-23560.34;;;12.41;100.00
29385;BME280;16367;48.736;9.218;2023-04-23T01:28:41;-23557.66;;;12.33;100.00
29385;BME280;16367;48.736;9.218;2023-04-23T01:30:46;-23556.22;;;12.28;100.00
29385;BME280;16367;48.736;9.218;2023-04-23T01:32:49;-23556.53;;;12.29;100.00
29385;BME280;16367;48.736;9.218;2023-04-23T01:34:53;-23557.19;;;12.31;100.00
29385;BME280;16367;48.736;9.218;2023-04-23T01:36:57;-23555.91;;;12.27;100.00
29385;BME280;16367;48.736;9.218;2023-04-23T01:39:01;-23554.81;;;12.24;100.00
29385;BME280;16367;48.736;9.218;2023-04-23T01:41:04;-23556.22;;;12.28;100.00
29385;BME280;16367;48.736;9.218;2023-04-23T01:43:08;-23555.28;;;12.25;100.00
29385;BME280;16367;48.736;9.218;2023-04-23T01:45:11;-23557.03;;;12.31;100.00
29385;BME280;16367;48.736;9.218;2023-04-23T01:47:16;-23554.50;;;12.23;100.00
29385;BME280;16367;48.736;9.218;2023-04-23T01:49:19;-23559.06;;;12.37;100.00
29385;BME280;16367;48.736;9.218;2023-04-23T01:51:21;-23558.44;;;12.35;100.00
29385;BME280;16367;48.736;9.218;2023-04-23T01:53:26;-23556.38;;;12.29;100.00
29385;BME280;16367;48.736;9.218;2023-04-23T01:55:30;-23558.13;;;12.34;100.00
29385;BME280;16367;48.736;9.218;2023-04-23T01:57:33;-23555.28;;;12.25;100.00
29385;BME280;16367;48.736;9.218;2023-04-23T01:59:36;-23552.75;;;12.17;100.00
29385;BME280;16367;48.736;9.218;2023-04-23T02:01:43;-23552.44;;;12.16;100.00
29385;BME280;16367;48.736;9.218;2023-04-23T02:03:48;-23554.34;;;12.22;100.00
29385;BME280;16367;48.736;9.218;2023-04-23T02:05:52;-23551.47;;;12.13;100.00
29385;BME280;16367;48.736;9.218;2023-04-23T02:07:55;-23552.44;;;12.16;100.00
29385;BME280;16367;48.736;9.218;2023-04-23T02:09:58;-23552.75;;;12.17;100.00
29385;BME280;16367;48.736;9.218;2023-04-23T02:12:03;-23554.34;;;12.22;100.00
29385;BME280;16367;48.736;9.218;2023-04-23T02:14:06;-23553.53;;;12.20;100.00
29385;BME280;16367;48.736;9.218;2023-04-23T02:16:09;-23555.59;;;12.26;100.00
29385;BME280;16367;48.736;9.218;2023-04-23T02:18:13;-23552.75;;;12.17;100.00
29385;BME280;16367;48.736;9.218;2023-04-23T02:20:16;-23552.75;;;12.17;100.00
29385;BME280;16367;48.736;9.218;2023-04-23T02:22:19;-23550.53;;;12.10;100.00
29385;BME280;16367;48.736;9.218;2023-04-23T02:24:22;-23549.28;;;12.06;100.00
29385;BME280;16367;48.736;9.218;2023-04-23T02:26:25;-23553.22;;;12.19;100.00
29385;BME280;16367;48.736;9.218;2023-04-23T02:28:30;-23548.00;;;12.02;100.00
29385;BME280;16367;48.736;9.218;2023-04-23T02:30:33;-23546.59;;;11.98;100.00
29385;BME280;16367;48.736;9.218;2023-04-23T02:32:37;-23547.38;;;12.00;100.00
29385;BME280;16367;48.736;9.218;2023-04-23T02:34:40;-23545.31;;;11.93;100.00
29385;BME280;16367;48.736;9.218;2023-04-23T02:36:43;-23544.69;;;11.91;100.00
29385;BME280;16367;48.736;9.218;2023-04-23T02:38:46;-23545.16;;;11.93;100.00
29385;BME280;16367;48.736;9.218;2023-04-23T02:40:51;-23548.63;;;12.04;100.00
29385;BME280;16367;48.736;9.218;2023-04-23T02:42:53;-23546.25;;;11.96;100.00
29385;BME280;16367;48.736;9.218;2023-04-23T02:44:57;-23538.84;;;11.73;100.00
29385;BME280;16367;48.736;9.218;2023-04-23T02:47:01;-23538.19;;;11.71;100.00
29385;BME280;16367;48.736;9.218;2023-04-23T02:49:04;-23538.84;;;11.73;100.00
29385;BME280;16367;48.736;9.218;2023-04-23T02:51:09;-23538.19;;;11.71;100.00
29385;BME280;16367;48.736;9.218;2023-04-23T02:53:12;-23535.34;;;11.62;100.00
29385;BME280;16367;48.736;9.218;2023-04-23T02:55:15;-23533.59;;;11.56;100.00
29385;BME280;16367;48.736;9.218;2023-04-23T02:57:18;-23531.38;;;11.49;100.00
29385;BME280;16367;48.736;9.218;2023-04-23T02:59:21;-23531.22;;;11.49;100.00
29385;BME280;16367;48.736;9.218;2023-04-23T03:01:25;-23529.97;;;11.45;100.00
29385;BME280;16367;48.736;9.218;2023-04-23T03:03:31;-23526.78;;;11.35;100.00
29385;BME280;16367;48.736;9.218;2023-04-23T03:05:35;-23529.97;;;11.45;100.00
29385;BME280;16367;48.736;9.218;2023-04-23T03:07:37;-23528.69;;;11.41;100.00
29385;BME280;16367;48.736;9.218;2023-04-23T03:09:40;-23530.28;;;11.46;100.00
29385;BME280;16367;48.736;9.218;2023-04-23T03:11:43;-23531.53;;;11.50;100.00
29385;BME280;16367;48.736;9.218;2023-04-23T03:13:45;-23529.81;;;11.44;100.00
29385;BME280;16367;48.736;9.218;2023-04-23T03:15:49;-23526.63;;;11.34;100.00
29385;BME280;16367;48.736;9.218;2023-04-23T03:17:53;-23526.47;;;11.34;100.00
29385;BME280;16367;48.736;9.218;2023-04-23T03:19:56;-23529.16;;;11.42;100.00
29385;BME280;16367;48.736;9.218;2023-04-23T03:21:59;-23526.94;;;11.35;100.00
29385;BME280;16367;48.736;9.218;2023-04-23T03:24:04;-23528.06;;;11.39;100.00
29385;BME280;16367;48.736;9.218;2023-04-23T03:26:07;-23526.47;;;11.34;100.00
29385;BME280;16367;48.736;9.218;2023-04-23T03:28:09;-23526.94;;;11.35;100.00
29385;BME280;16367;48.736;9.218;2023-04-23T03:30:12;-23530.75;;;11.47;100.00
29385;BME280;16367;48.736;9.218;2023-04-23T03:32:15;-23523.78;;;11.25;100.00
29385;BME280;16367;48.736;9.218;2023-04-23T03:34:19;-23522.19;;;11.20;100.00
29385;BME280;16367;48.736;9.218;2023-04-23T03:36:22;-23523.00;;;11.22;100.00
29385;BME280;16367;48.736;9.218;2023-04-23T03:38:24;-23521.88;;;11.19;100.00
29385;BME280;16367;48.736;9.218;2023-04-23T03:40:27;-23520.16;;;11.13;100.00
29385;BME280;16367;48.736;9.218;2023-04-23T03:42:30;-23519.34;;;11.11;100.00
29385;BME280;16367;48.736;9.218;2023-04-23T03:44:32;-23519.19;;;11.10;100.00
29385;BME280;16367;48.736;9.218;2023-04-23T03:46:35;-23519.66;;;11.12;100.00
29385;BME280;16367;48.736;9.218;2023-04-23T03:48:38;-23520.78;;;11.15;100.00
29385;BME280;16367;48.736;9.218;2023-04-23T03:50:42;-23519.34;;;11.11;100.00
29385;BME280;16367;48.736;9.218;2023-04-23T03:52:45;-23515.72;;;10.99;100.00
29385;BME280;16367;48.736;9.218;2023-04-23T03:54:47;-23516.97;;;11.03;100.00
29385;BME280;16367;48.736;9.218;2023-04-23T03:56:50;-23517.63;;;11.05;100.00
29385;BME280;16367;48.736;9.218;2023-04-23T03:58:53;-23516.97;;;11.03;100.00
29385;BME280;16367;48.736;9.218;2023-04-23T04:00:56;-23517.63;;;11.05;100.00
29385;BME280;16367;48.736;9.218;2023-04-23T04:02:59;-23516.66;;;11.02;100.00
29385;BME280;16367;48.736;9.218;2023-04-23T04:05:03;-23514.75;;;10.96;100.00
29385;BME280;16367;48.736;9.218;2023-04-23T04:07:07;-23516.03;;;11.00;100.00
29385;BME280;16367;48.736;9.218;2023-04-23T04:09:12;-23519.81;;;11.12;100.00
29385;BME280;16367;48.736;9.218;2023-04-23T04:11:15;-23516.03;;;11.00;100.00
29385;BME280;16367;48.736;9.218;2023-04-23T04:13:17;-23516.34;;;11.01;100.00
29385;BME280;16367;48.736;9.218;2023-04-23T04:15:20;-23516.50;;;11.02;100.00
29385;BME280;16367;48.736;9.218;2023-04-23T04:17:23;-23515.72;;;10.99;100.00
29385;BME280;16367;48.736;9.218;2023-04-23T04:19:26;-23512.38;;;10.89;100.00
29385;BME280;16367;48.736;9.218;2023-04-23T04:21:29;-23513.66;;;10.93;100.00
29385;BME280;16367;48.736;9.218;2023-04-23T04:23:34;-20884.91;;;10.93;100.00
29385;BME280;16367;48.736;9.218;2023-04-23T04:25:37;-21662.88;;;10.83;100.00
29385;BME280;16367;48.736;9.218;2023-04-23T04:27:40;-19241.94;;;10.84;100.00
29385;BME280;16367;48.736;9.218;2023-04-23T04:29:44;-13834.22;;;10.81;100.00
29385;BME280;16367;48.736;9.218;2023-04-23T04:31:47;-10279.16;;;10.82;100.00
29385;BME280;16367;48.736;9.218;2023-04-23T04:33:52;-10279.13;;;10.81;100.00
29385;BME280;16367;48.736;9.218;2023-04-23T04:36:00;-7368.09;;;10.84;100.00
29385;BME280;16367;48.736;9.218;2023-04-23T04:38:04;-4778.41;;;10.84;100.00
29385;BME280;16367;48.736;9.218;2023-04-23T04:40:09;-6720.75;;;10.82;100.00
29385;BME280;16367;48.736;9.218;2023-04-23T04:42:13;-3159.06;;;10.77;100.00
29385;BME280;16367;48.736;9.218;2023-04-23T04:44:16;729.97;;;10.78;100.00
29385;BME280;16367;48.736;9.218;2023-04-23T04:46:19;3975.19;;;10.88;100.00
29385;BME280;16367;48.736;9.218;2023-04-23T04:48:21;405.78;;;10.78;100.00
29385;BME280;16367;48.736;9.218;2023-04-23T04:50:23;5270.84;;;10.69;100.00
29385;BME280;16367;48.736;9.218;2023-04-23T04:52:26;7869.19;;;10.73;100.00
29385;BME280;16367;48.736;9.218;2023-04-23T04:54:29;11118.19;;;10.71;100.00
29385;BME280;16367;48.736;9.218;2023-04-23T04:56:33;15020.56;;;10.69;100.00
29385;BME280;16367;48.736;9.218;2023-04-23T04:58:36;15348.97;;;10.78;100.00
29385;BME280;16367;48.736;9.218;2023-04-23T05:00:39;8845.88;;;10.83;100.00
29385;BME280;16367;48.736;9.218;2023-04-23T05:02:41;8196.22;;;10.84;100.00
29385;BME280;16367;48.736;9.218;2023-04-23T05:04:44;3325.63;;;10.84;100.00
29385;BME280;16367;48.736;9.218;2023-04-23T05:06:47;5595.91;;;10.72;100.00
29385;BME280;16367;48.736;9.218;2023-04-23T05:08:49;9492.78;;;10.69;100.00
29385;BME280;16367;48.736;9.218;2023-04-23T05:10:52;13071.00;;;10.77;100.00
29385;BME280;16367;48.736;9.218;2023-04-23T05:12:56;11769.84;;;10.76;100.00
29385;BME280;16367;48.736;9.218;2023-04-23T05:14:59;6248.50;;;10.92;100.00
29385;BME280;16367;48.736;9.218;2023-04-23T05:17:02;-4454.69;;;10.98;100.00
29385;BME280;16367;48.736;9.218;2023-04-23T05:19:05;-20007.00;;;10.99;100.00
29385;BME280;16367;48.736;9.218;2023-04-23T05:21:08;-23520.78;;;11.15;100.00
29385;BME280;16367;48.736;9.218;2023-04-23T05:23:11;-23524.56;;;11.27;100.00
29385;BME280;16367;48.736;9.218;2023-04-23T05:25:14;-23527.44;;;11.37;100.00
29385;BME280;16367;48.736;9.218;2023-04-23T05:27:17;-23520.63;;;11.15;100.00
29385;BME280;16367;48.736;9.218;2023-04-23T05:29:21;-23516.34;;;11.01;100.00
29385;BME280;16367;48.736;9.218;2023-04-23T05:31:24;-23518.56;;;11.08;100.00
29385;BME280;16367;48.736;9.218;2023-04-23T05:33:30;-23516.97;;;11.03;100.00
29385;BME280;16367;48.736;9.218;2023-04-23T05:35:47;-23524.91;;;11.29;100.00
29385;BME280;16367;48.736;9.218;2023-04-23T05:37:49;-23525.22;;;11.30;100.00
29385;BME280;16367;48.736;9.218;2023-04-23T05:39:52;-23521.41;;;11.17;100.00
29385;BME280;16367;48.736;9.218;2023-04-23T05:41:55;-23520.47;;;11.14;100.00
29385;BME280;16367;48.736;9.218;2023-04-23T05:43:58;-23521.09;;;11.16;100.00
29385;BME280;16367;48.736;9.218;2023-04-23T05:46:02;-23518.56;;;11.08;100.00
29385;BME280;16367;48.736;9.218;2023-04-23T05:48:07;-23521.41;;;11.17;100.00
29385;BME280;16367;48.736;9.218;2023-04-23T05:50:10;-23523.31;;;11.23;100.00
29385;BME280;16367;48.736;9.218;2023-04-23T05:52:13;-23529.34;;;11.43;100.00
29385;BME280;16367;48.736;9.218;2023-04-23T05:54:15;-23525.53;;;11.31;100.00
29385;BME280;16367;48.736;9.218;2023-04-23T05:56:21;-23528.06;;;11.39;100.00
29385;BME280;16367;48.736;9.218;2023-04-23T05:58:23;-23530.59;;;11.47;100.00
29385;BME280;16367;48.736;9.218;2023-04-23T06:00:27;-23533.13;;;11.55;100.00
29385;BME280;16367;48.736;9.218;2023-04-23T06:02:31;-23529.97;;;11.45;100.00
29385;BME280;16367;48.736;9.218;2023-04-23T06:04:35;-23534.72;;;11.60;100.00
29385;BME280;16367;48.736;9.218;2023-04-23T06:06:38;-23534.56;;;11.59;100.00
29385;BME280;16367;48.736;9.218;2023-04-23T06:08:41;-23533.91;;;11.57;100.00
29385;BME280;16367;48.736;9.218;2023-04-23T06:10:44;-23532.81;;;11.54;100.00
29385;BME280;16367;48.736;9.218;2023-04-23T06:12:46;-23543.09;;;11.86;100.00
29385;BME280;16367;48.736;9.218;2023-04-23T06:14:51;-23550.38;;;12.10;100.00
29385;BME280;16367;48.736;9.218;2023-04-23T06:16:54;-23553.69;;;12.20;100.00
29385;BME280;16367;48.736;9.218;2023-04-23T06:18:58;-23551.16;;;12.12;100.00
29385;BME280;16367;48.736;9.218;2023-04-23T06:21:00;-23554.97;;;12.24;100.00
29385;BME280;16367;48.736;9.218;2023-04-23T06:23:04;-23550.22;;;12.09;100.00
29385;BME280;16367;48.736;9.218;2023-04-23T06:25:08;-23555.59;;;12.26;100.00
29385;BME280;16367;48.736;9.218;2023-04-23T06:27:11;-23561.59;;;12.45;100.00
29385;BME280;16367;48.736;9.218;2023-04-23T06:29:14;-23548.78;;;12.05;100.00
29385;BME280;16367;48.736;9.218;2023-04-23T06:31:17;-23552.13;;;12.15;100.00
29385;BME280;16367;48.736;9.218;2023-04-23T06:33:20;-23547.38;;;12.00;100.00
29385;BME280;16367;48.736;9.218;2023-04-23T06:35:24;-23550.84;;;12.11;100.00
29385;BME280;16367;48.736;9.218;2023-04-23T06:37:27;-23552.59;;;12.17;100.00
29385;BME280;16367;48.736;9.218;2023-04-23T06:39:31;-23553.38;;;12.19;100.00
29385;BME280;16367;48.736;9.218;2023-04-23T06:41:34;-23547.84;;;12.02;100.00
29385;BME280;16367;48.736;9.218;2023-04-23T06:43:36;-23560.66;;;12.42;100.00
29385;BME280;16367;48.736;9.218;2023-04-23T06:45:39;-23566.03;;;12.59;100.00
29385;BME280;16367;48.736;9.218;2023-04-23T06:47:42;-23572.03;;;12.79;100.00
29385;BME280;16367;48.736;9.218;2023-04-23T06:49:45;-23583.59;;;13.15;100.00
29385;BME280;16367;48.736;9.218;2023-04-23T06:51:49;-23588.97;;;13.32;100.00
29385;BME280;16367;48.736;9.218;2023-04-23T06:53:52;-23575.22;;;12.89;100.00
29385;BME280;16367;48.736;9.218;2023-04-23T06:55:54;-23586.75;;;13.25;100.00
29385;BME280;16367;48.736;9.218;2023-04-23T06:57:57;-23611.22;;;14.03;100.00
29385;BME280;16367;48.736;9.218;2023-04-23T07:00:00;-23604.13;;;13.81;98.54
29385;BME280;16367;48.736;9.218;2023-04-23T07:02:03;-23606.97;;;13.90;100.00
29385;BME280;16367;48.736;9.218;2023-04-23T07:04:06;-23609.34;;;13.97;99.44
29385;BME280;16367;48.736;9.218;2023-04-23T07:06:08;-23622.75;;;14.40;95.04
29385;BME280;16367;48.736;9.218;2023-04-23T07:08:12;-23600.50;;;13.69;97.81
29385;BME280;16367;48.736;9.218;2023-04-23T07:10:15;-23587.53;;;13.28;100.00
29385;BME280;16367;48.736;9.218;2023-04-23T07:12:18;-23610.75;;;14.02;97.99
29385;BME280;16367;48.736;9.218;2023-04-23T07:14:21;-23600.03;;;13.68;97.63
29385;BME280;16367;48.736;9.218;2023-04-23T07:16:24;-23598.91;;;13.64;96.58
29385;BME280;16367;48.736;9.218;2023-04-23T07:18:29;-23614.72;;;14.14;95.97
29385;BME280;16367;48.736;9.218;2023-04-23T07:20:32;-23597.66;;;13.60;96.62
29385;BME280;16367;48.736;9.218;2023-04-23T07:22:35;-23601.59;;;13.73;97.10
29385;BME280;16367;48.736;9.218;2023-04-23T07:24:39;-23641.84;;;15.01;91.01
29385;BME280;16367;48.736;9.218;2023-04-23T07:26:43;-23674.81;;;16.06;85.92
29385;BME280;16367;48.736;9.218;2023-04-23T07:28:46;-23706.00;;;17.06;75.01
29385;BME280;16367;48.736;9.218;2023-04-23T07:30:53;-23655.91;;;15.46;81.22
29385;BME280;16367;48.736;9.218;2023-04-23T07:32:56;-23624.03;;;14.44;88.10
29385;BME280;16367;48.736;9.218;2023-04-23T07:34:59;-23604.44;;;13.82;91.22
29385;BME280;16367;48.736;9.218;2023-04-23T07:37:02;-23627.19;;;14.54;88.72
29385;BME280;16367;48.736;9.218;2023-04-23T07:39:04;-23642.31;;;15.03;84.24
29385;BME280;16367;48.736;9.218;2023-04-23T07:41:09;-23609.97;;;13.99;89.33
29385;BME280;16367;48.736;9.218;2023-04-23T07:43:11;-23618.50;;;14.27;89.13
29385;BME280;16367;48.736;9.218;2023-04-23T07:45:15;-23622.75;;;14.40;88.25
29385;BME280;16367;48.736;9.218;2023-04-23T07:47:18;-23608.56;;;13.95;89.61
29385;BME280;16367;48.736;9.218;2023-04-23T07:49:21;-23598.91;;;13.64;92.09
29385;BME280;16367;48.736;9.218;2023-04-23T07:51:23;-23607.59;;;13.92;92.45
29385;BME280;16367;48.736;9.218;2023-04-23T07:53:27;-23617.53;;;14.23;91.43
29385;BME280;16367;48.736;9.218;2023-04-23T07:55:30;-23625.13;;;14.48;88.97
29385;BME280;16367;48.736;9.218;2023-04-23T07:57:34;-23648.78;;;15.23;82.22
29385;BME280;16367;48.736;9.218;2023-04-23T07:59:37;-23632.88;;;14.72;84.55
29385;BME280;16367;48.736;9.218;2023-04-23T08:01:40;-23606.34;;;13.88;84.40
29385;BME280;16367;48.736;9.218;2023-04-23T08:03:43;-23657.94;;;15.52;79.64
29385;BME280;16367;48.736;9.218;2023-04-23T08:05:46;-23667.72;;;15.84;76.12
29385;BME280;16367;48.736;9.218;2023-04-23T08:07:49;-23709.78;;;17.18;72.21
29385;BME280;16367;48.736;9.218;2023-04-23T08:09:51;-23724.09;;;17.64;68.33
29385;BME280;16367;48.736;9.218;2023-04-23T08:11:54;-23691.34;;;16.59;68.36
29385;BME280;16367;48.736;9.218;2023-04-23T08:13:59;-23711.50;;;17.24;69.91
29385;BME280;16367;48.736;9.218;2023-04-23T08:16:02;-23747.38;;;18.38;62.43
29385;BME280;16367;48.736;9.218;2023-04-23T08:18:05;-23674.34;;;16.05;68.54
29385;BME280;16367;48.736;9.218;2023-04-23T08:20:08;-23676.38;;;16.11;70.45
29385;BME280;16367;48.736;9.218;2023-04-23T08:22:10;-23667.56;;;15.83;71.48
29385;BME280;16367;48.736;9.218;2023-04-23T08:24:13;-23682.06;;;16.29;70.48
29385;BME280;16367;48.736;9.218;2023-04-23T08:26:16;-23690.88;;;16.58;71.75
29385;BME280;16367;48.736;9.218;2023-04-23T08:28:19;-23688.22;;;16.49;70.30
29385;BME280;16367;48.736;9.218;2023-04-23T08:30:23;-23670.88;;;15.94;70.45
29385;BME280;16367;48.736;9.218;2023-04-23T08:32:28;-23639.19;;;14.92;74.49
29385;BME280;16367;48.736;9.218;2023-04-23T08:34:31;-23680.31;;;16.24;71.63
29385;BME280;16367;48.736;9.218;2023-04-23T08:36:36;-23647.53;;;15.19;73.38
29385;BME280;16367;48.736;9.218;2023-04-23T08:38:39;-23655.09;;;15.43;74.87
29385;BME280;16367;48.736;9.218;2023-04-23T08:40:42;-23673.41;;;16.02;71.91
29385;BME280;16367;48.736;9.218;2023-04-23T08:42:49;-23665.81;;;15.78;73.99
29385;BME280;16367;48.736;9.218;2023-04-23T08:44:53;-23702.38;;;16.94;67.21
29385;BME280;16367;48.736;9.218;2023-04-23T08:47:00;-23678.91;;;16.19;69.28
29385;BME280;16367;48.736;9.218;2023-04-23T08:49:06;-23660.94;;;15.62;72.42
29385;BME280;16367;48.736;9.218;2023-04-23T08:51:12;-23647.69;;;15.20;72.77
29385;BME280;16367;48.736;9.218;2023-04-23T08:53:21;-23637.13;;;14.86;73.33
29385;BME280;16367;48.736;9.218;2023-04-23T08:55:28;-23632.38;;;14.71;72.85
29385;BME280;16367;48.736;9.218;2023-04-23T08:57:31;-23628.59;;;14.59;74.61
29385;BME280;16367;48.736;9.218;2023-04-23T08:59:35;-23652.59;;;15.35;74.04
29385;BME280;16367;48.736;9.218;2023-04-23T09:01:40;-23644.69;;;15.10;73.18
29385;BME280;16367;48.736;9.218;2023-04-23T09:03:45;-23641.84;;;15.01;72.36
29385;BME280;16367;48.736;9.218;2023-04-23T09:05:49;-23657.78;;;15.52;72.89
29385;BME280;16367;48.736;9.218;2023-04-23T09:07:53;-23678.13;;;16.17;68.79
29385;BME280;16367;48.736;9.218;2023-04-23T09:09:56;-23683.78;;;16.35;68.79
29385;BME280;16367;48.736;9.218;2023-04-23T09:11:59;-23671.03;;;15.94;69.48
29385;BME280;16367;48.736;9.218;2023-04-23T09:14:01;-23668.34;;;15.86;68.74
29385;BME280;16367;48.736;9.218;2023-04-23T09:16:05;-23693.56;;;16.66;69.27
29385;BME280;16367;48.736;9.218;2023-04-23T09:18:08;-23683.47;;;16.34;68.62
29385;BME280;16367;48.736;9.218;2023-04-23T09:20:13;-23701.75;;;16.92;66.30
29385;BME280;16367;48.736;9.218;2023-04-23T09:22:36;-23671.19;;;15.95;66.95
29385;BME280;16367;48.736;9.218;2023-04-23T09:24:41;-23667.72;;;15.84;66.85
29385;BME280;16367;48.736;9.218;2023-04-23T09:26:45;-23695.44;;;16.72;65.58
29385;BME280;16367;48.736;9.218;2023-04-23T09:28:49;-23700.81;;;16.89;64.60
29385;BME280;16367;48.736;9.218;2023-04-23T09:30:52;-23769.69;;;19.10;59.32
29385;BME280;16367;48.736;9.218;2023-04-23T09:32:55;-23757.44;;;18.71;58.43
29385;BME280;16367;48.736;9.218;2023-04-23T09:34:58;-23795.16;;;19.91;53.28
29385;BME280;16367;48.736;9.218;2023-04-23T09:37:05;-23772.84;;;19.20;56.35
29385;BME280;16367;48.736;9.218;2023-04-23T09:39:11;-23768.44;;;19.06;56.84
29385;BME280;16367;48.736;9.218;2023-04-23T09:41:22;-23805.19;;;20.24;52.91
29385;BME280;16367;48.736;9.218;2023-04-23T09:43:29;-23781.00;;;19.46;54.51
29385;BME280;16367;48.736;9.218;2023-04-23T09:45:32;-23792.63;;;19.83;54.10
29385;BME280;16367;48.736;9.218;2023-04-23T09:47:37;-23772.22;;;19.18;54.58
29385;BME280;16367;48.736;9.218;2023-04-23T09:49:44;-23783.38;;;19.54;54.98
29385;BME280;16367;48.736;9.218;2023-04-23T09:51:48;-23677.19;;;16.14;63.01
29385;BME280;16367;48.736;9.218;2023-04-23T09:53:52;-23714.50;;;17.33;63.16
29385;BME280;16367;48.736;9.218;2023-04-23T09:55:55;-23756.97;;;18.69;58.04
29385;BME280;16367;48.736;9.218;2023-04-23T09:57:58;-23734.81;;;17.98;58.33
29385;BME280;16367;48.736;9.218;2023-04-23T10:00:12;-23740.16;;;18.15;59.03
29385;BME280;16367;48.736;9.218;2023-04-23T10:02:16;-23715.44;;;17.36;60.44
29385;BME280;16367;48.736;9.218;2023-04-23T10:04:20;-23762.63;;;18.87;57.34
29385;BME280;16367;48.736;9.218;2023-04-23T10:06:28;-23793.09;;;19.85;55.03
29385;BME280;16367;48.736;9.218;2023-04-23T10:08:37;-23787.91;;;19.68;53.41
29385;BME280;16367;48.736;9.218;2023-04-23T10:10:43;-23773.78;;;19.23;54.72
29385;BME280;16367;48.736;9.218;2023-04-23T10:13:07;-23746.44;;;18.35;57.03
29385;BME280;16367;48.736;9.218;2023-04-23T10:15:10;-23753.22;;;18.57;54.57
29385;BME280;16367;48.736;9.218;2023-04-23T10:17:14;-23785.72;;;19.61;54.36
29385;BME280;16367;48.736;9.218;2023-04-23T10:19:18;-23766.72;;;19.00;56.02
29385;BME280;16367;48.736;9.218;2023-04-23T10:21:23;-23787.63;;;19.67;55.15
29385;BME280;16367;48.736;9.218;2023-04-23T10:23:37;-23759.97;;;18.79;56.42
29385;BME280;16367;48.736;9.218;2023-04-23T10:25:44;-23744.25;;;18.28;58.10
29385;BME280;16367;48.736;9.218;2023-04-23T10:27:49;-23756.66;;;18.68;56.74
29385;BME280;16367;48.736;9.218;2023-04-23T10:29:56;-23763.09;;;18.89;55.22
29385;BME280;16367;48.736;9.218;2023-04-23T10:32:01;-23744.88;;;18.30;58.22
29385;BME280;16367;48.736;9.218;2023-04-23T10:34:05;-23753.84;;;18.59;56.62
29385;BME280;16367;48.736;9.218;2023-04-23T10:36:08;-23741.72;;;18.20;57.25
29385;BME280;16367;48.736;9.218;2023-04-23T10:38:12;-23753.50;;;18.58;57.38
29385;BME280;16367;48.736;9.218;2023-04-23T10:40:19;-23735.13;;;17.99;57.88
29385;BME280;16367;48.736;9.218;2023-04-23T10:42:24;-23737.00;;;18.05;58.35